ヘルシンキ/ヴァンター の空港の天気 - METARとTAF

ヘルシンキ・ヴァンター国際空港 ( EFHK / HEL ) - フィンランド ヴァンター
飛行場実況気象(Metar)
観測時間11/30 11:50 EET (11/30 09:50 UTC)
風向・風速北東 3m/s
視程3000m
天気現象弱い雪
少しの雲 雲底高度 120m
全天を覆う雲 雲底高度 150m
気温0℃
湿度100%
気圧1018hPa
METAREFHK 300950Z 05006KT 3000 -SN FEW004 OVC005 M00/M00 Q1018 NOSIG
過去の天気等 Google飛行場航空写真 Wunderground天気予報

過去48時間のMETAR

飛行場予報(TAF)
発表時間: 11/30 10:30 EET (11/30 08:30 UTC)
予報対象時間: 30日11時 EET ~ 1日11時 EET
風向・風速北東 4m/s
視程6000m
天気現象弱い雪
全天の8割程度の雲 雲底高度 120m
30日11時 EET ~ 30日14時 EET に一時的に
視程2500m
天気現象弱い雪雨
全天の8割程度の雲 雲底高度 180m
30日14時 EET ~ 30日16時 EET に徐々に
視程8000m
全天の8割程度の雲 雲底高度 150m
30日16時 EET ~ 1日6時 EET に一時的に
視程5000m
天気現象弱い雪雨
全天の4割程度の雲 雲底高度 120m
全天の8割程度の雲 雲底高度 300m
1日6時 EET ~ 1日8時 EET に徐々に
視程7000m
天気現象弱い雨
全天の8割程度の雲 雲底高度 300m
1日8時 EET ~ 1日11時 EET に一時的に
視程10km以上
全天の4割程度の雲 雲底高度 240m
全天の8割程度の雲 雲底高度 460m
TAF EFHK 300830Z 3009/0109 05008KT 6000 -SN BKN004
TEMPO 3009/3012 2500 -SNRA BKN006
BECMG 3012/3014 8000 BKN005
TEMPO 3014/0104 5000 -SNRA SCT004 BKN010
BECMG 0104/0106 7000 -RA BKN010
TEMPO 0106/0109 9999 SCT008 BKN015